To NAV CANADA Home Page Login to a new session Search on AWWS site Feedback and Comments Disclaimer Vers la page française équivalente Tips FAQ What's new on the site To the Forecasts and Observations / NOTAM section To "File a Flight Plan" website Publications and other links Update of the User's profile FIC Telephone Numbers My Weather Data Folder Route Weather Data Regional Weather Data Local Weather Data To the Forecasts and Observations / NOTAM section
Request Generated 04/25/2015 at 10:57:40 UTC . Weather information available at that time is displayed.

METAR/TAF

THUNDER BAY/ON    

METAR CYQT 251000Z 03004KT 15SM SCT130 M02/M05 A3006 RMK AC3 SLP188=
METAR CYQT 250900Z 07003KT 15SM FEW130 M02/M04 A3004 RMK AC2 SLP182=
METAR CYQT 250800Z 03003KT 15SM OVC130 M01/M04 A3005 RMK AC8 SLP185=

TAF CYQT 250738Z 2508/2520 VRB03KT P6SM BKN060 BKN130
BECMG 2514/2516 09010KT
FM251600 09010KT P6SM SCT080
RMK NXT FCST BY 251400Z=
Your time UTC time
Weather data provided by Environment Canada and NAV CANADA